Time;durP1;ratioP1;P1;durP2;ratioP2;P2;SDS_P1;SDS_P2;PMS_P1;PMS_P2;Temp;Humidity;BMP_temperature;BMP_pressure;BME280_temperature;BME280_humidity;BME280_pressure;Samples;Min_cycle;Max_cycle;Signal;HPM_P1;HPM_P2
2024/05/04 00:01:08;;;;;;;5.43;2.50;;;;;;;;;;5333890;26;19997;-69
2024/05/04 00:03:34;;;;;;;4.90;2.50;;;;;;;;;;5306042;26;20012;-69
2024/05/04 00:06:00;;;;;;;3.80;2.45;;;;;;;;;;5301173;26;20002;-69
2024/05/04 00:08:26;;;;;;;8.35;2.72;;;;;;;;;;5301399;26;19997;-69
2024/05/04 00:10:51;;;;;;;4.78;2.63;;;;;;;;;;5299825;26;20306;-69
2024/05/04 00:13:17;;;;;;;3.35;2.30;;;;;;;;;;5328365;26;20013;-69
2024/05/04 00:15:42;;;;;;;5.55;2.60;;;;;;;;;;5301702;26;20092;-69
2024/05/04 00:18:08;;;;;;;4.45;2.25;;;;;;;;;;5301496;26;20073;-69
2024/05/04 00:20:33;;;;;;;4.00;2.10;;;;;;;;;;5300838;26;20005;-69
2024/05/04 00:22:59;;;;;;;3.67;2.10;;;;;;;;;;5300473;26;20105;-69
2024/05/04 00:25:24;;;;;;;5.00;2.30;;;;;;;;;;5301234;26;20005;-69
2024/05/04 00:27:49;;;;;;;3.83;2.10;;;;;;;;;;5299636;27;19998;-69
2024/05/04 00:30:15;;;;;;;3.55;1.98;;;;;;;;;;5301293;26;19997;-68
2024/05/04 00:32:40;;;;;;;4.82;2.40;;;;;;;;;;5299321;26;19997;-69
2024/05/04 00:35:06;;;;;;;5.38;2.10;;;;;;;;;;5301617;26;20006;-69
2024/05/04 00:37:31;;;;;;;3.50;2.50;;;;;;;;;;5300801;26;20083;-69
2024/05/04 00:39:56;;;;;;;5.72;2.00;;;;;;;;;;5298367;26;19997;-69
2024/05/04 00:42:22;;;;;;;7.25;2.15;;;;;;;;;;5300026;26;20012;-68
2024/05/04 00:44:47;;;;;;;4.00;2.15;;;;;;;;;;5300504;26;20657;-69
2024/05/04 00:47:13;;;;;;;5.82;2.45;;;;;;;;;;5301781;26;20040;-69
2024/05/04 00:49:38;;;;;;;4.10;2.28;;;;;;;;;;5301983;26;20009;-69
2024/05/04 00:52:04;;;;;;;5.28;2.55;;;;;;;;;;5301418;26;19993;-69
2024/05/04 00:54:30;;;;;;;8.50;2.70;;;;;;;;;;5301208;26;20013;-68
2024/05/04 00:56:55;;;;;;;5.55;2.97;;;;;;;;;;5311150;26;20003;-69
2024/05/04 00:59:21;;;;;;;4.32;2.55;;;;;;;;;;5309207;26;20021;-69
2024/05/04 01:01:46;;;;;;;6.53;2.58;;;;;;;;;;5301120;26;20008;-69
2024/05/04 01:04:13;;;;;;;5.43;2.33;;;;;;;;;;5301452;26;20017;-69
2024/05/04 01:06:38;;;;;;;4.57;2.60;;;;;;;;;;5300289;26;21033;-68
2024/05/04 01:09:04;;;;;;;4.75;2.55;;;;;;;;;;5299520;27;20008;-69
2024/05/04 01:11:30;;;;;;;4.68;2.53;;;;;;;;;;5298719;27;20006;-69
2024/05/04 01:13:55;;;;;;;3.13;2.40;;;;;;;;;;5299650;26;20038;-69
2024/05/04 01:16:20;;;;;;;3.88;2.50;;;;;;;;;;5328850;26;20008;-69
2024/05/04 01:18:48;;;;;;;4.97;2.42;;;;;;;;;;5299856;26;20029;-67
2024/05/04 01:21:14;;;;;;;4.88;2.53;;;;;;;;;;5324047;26;20001;-69
2024/05/04 01:23:39;;;;;;;5.00;2.40;;;;;;;;;;5335508;26;20012;-69
2024/05/04 01:26:05;;;;;;;7.40;2.55;;;;;;;;;;5307480;26;20077;-69
2024/05/04 01:28:30;;;;;;;4.20;2.42;;;;;;;;;;5293051;27;20345;-69
2024/05/04 01:30:55;;;;;;;4.90;2.63;;;;;;;;;;5300679;27;19998;-69
2024/05/04 01:33:21;;;;;;;3.65;2.38;;;;;;;;;;5300640;26;20010;-69
2024/05/04 01:35:47;;;;;;;6.10;2.58;;;;;;;;;;5301540;26;19997;-70
2024/05/04 01:38:12;;;;;;;3.65;2.60;;;;;;;;;;5292369;26;19998;-69
2024/05/04 01:40:38;;;;;;;4.40;2.55;;;;;;;;;;5302020;26;20008;-69
2024/05/04 01:43:03;;;;;;;5.90;2.30;;;;;;;;;;5334085;26;20441;-69
2024/05/04 01:45:29;;;;;;;4.75;2.30;;;;;;;;;;5306695;26;20005;-69
2024/05/04 01:47:54;;;;;;;5.22;2.70;;;;;;;;;;5295007;27;19998;-69
2024/05/04 01:50:20;;;;;;;9.30;2.70;;;;;;;;;;5300462;26;20016;-69
2024/05/04 01:52:46;;;;;;;5.85;2.50;;;;;;;;;;5299673;26;20053;-69
2024/05/04 01:55:11;;;;;;;4.60;2.28;;;;;;;;;;5301295;26;20002;-69
2024/05/04 01:57:37;;;;;;;3.75;2.42;;;;;;;;;;5299175;26;20001;-69
2024/05/04 02:00:06;;;;;;;4.90;2.40;;;;;;;;;;5300631;26;20001;-69
2024/05/04 02:02:31;;;;;;;7.03;2.70;;;;;;;;;;5300163;26;20005;-69
2024/05/04 02:04:57;;;;;;;8.25;2.53;;;;;;;;;;5319806;26;19993;-68
2024/05/04 02:07:22;;;;;;;5.53;2.70;;;;;;;;;;5333798;26;20001;-68
2024/05/04 02:09:48;;;;;;;10.70;2.70;;;;;;;;;;5334661;26;20448;-68
2024/05/04 02:12:13;;;;;;;5.80;2.75;;;;;;;;;;5306446;26;20012;-68
2024/05/04 02:14:38;;;;;;;10.88;2.50;;;;;;;;;;5299837;26;20006;-69
2024/05/04 02:17:04;;;;;;;6.57;2.95;;;;;;;;;;5299971;26;20008;-69
2024/05/04 02:19:29;;;;;;;6.95;2.60;;;;;;;;;;5293957;26;20001;-68
2024/05/04 02:21:54;;;;;;;4.97;2.88;;;;;;;;;;5299809;27;20009;-69
2024/05/04 02:24:20;;;;;;;4.28;2.53;;;;;;;;;;5290914;27;20006;-69
2024/05/04 02:26:45;;;;;;;8.02;2.95;;;;;;;;;;5292132;27;20021;-69
2024/05/04 02:29:10;;;;;;;7.05;3.22;;;;;;;;;;5298153;26;20009;-69
2024/05/04 02:31:36;;;;;;;10.32;2.80;;;;;;;;;;5300155;26;20647;-69
2024/05/04 02:34:01;;;;;;;5.18;2.33;;;;;;;;;;5298655;26;20010;-69
2024/05/04 02:36:26;;;;;;;4.38;2.60;;;;;;;;;;5299276;26;19997;-69
2024/05/04 02:38:52;;;;;;;5.35;2.60;;;;;;;;;;5298711;26;20002;-69
2024/05/04 02:41:17;;;;;;;4.07;2.25;;;;;;;;;;5299056;26;20153;-69
2024/05/04 02:43:42;;;;;;;4.65;2.22;;;;;;;;;;5298490;26;19998;-68
2024/05/04 02:46:08;;;;;;;2.72;1.90;;;;;;;;;;5300303;26;20701;-69
2024/05/04 02:48:33;;;;;;;4.55;2.22;;;;;;;;;;5326263;26;20029;-69
2024/05/04 02:50:58;;;;;;;3.42;2.00;;;;;;;;;;5333151;26;19992;-69
2024/05/04 02:53:24;;;;;;;4.50;2.10;;;;;;;;;;5329173;26;19997;-69
2024/05/04 02:55:49;;;;;;;3.70;2.10;;;;;;;;;;5327592;26;19998;-69
2024/05/04 02:58:14;;;;;;;5.78;2.25;;;;;;;;;;5299032;26;20002;-69
2024/05/04 03:00:40;;;;;;;3.50;2.30;;;;;;;;;;5300239;26;20658;-68
2024/05/04 03:03:05;;;;;;;3.40;2.15;;;;;;;;;;5298031;26;20011;-69
2024/05/04 03:05:30;;;;;;;6.55;2.00;;;;;;;;;;5299162;26;20013;-69
2024/05/04 03:07:56;;;;;;;2.83;2.03;;;;;;;;;;5299110;26;20447;-69
2024/05/04 03:10:21;;;;;;;4.13;2.13;;;;;;;;;;5298594;26;19997;-69
2024/05/04 03:12:46;;;;;;;5.13;2.15;;;;;;;;;;5298508;26;20025;-68
2024/05/04 03:15:12;;;;;;;5.63;2.45;;;;;;;;;;5296583;26;19994;-69
2024/05/04 03:17:37;;;;;;;7.10;2.47;;;;;;;;;;5297931;26;20039;-68
2024/05/04 03:20:04;;;;;;;9.30;3.15;;;;;;;;;;5299727;26;20017;-69
2024/05/04 03:22:29;;;;;;;10.38;3.45;;;;;;;;;;5299229;26;19997;-69
2024/05/04 03:24:54;;;;;;;9.68;3.85;;;;;;;;;;5299008;26;20092;-69
2024/05/04 03:27:20;;;;;;;16.30;5.40;;;;;;;;;;5298571;26;20002;-68
2024/05/04 03:29:45;;;;;;;16.00;5.47;;;;;;;;;;5297791;26;20340;-68
2024/05/04 03:32:10;;;;;;;15.57;5.88;;;;;;;;;;5299354;26;20075;-69
2024/05/04 03:34:36;;;;;;;24.35;6.88;;;;;;;;;;5298435;26;20004;-69
2024/05/04 03:37:01;;;;;;;21.75;6.97;;;;;;;;;;5297909;26;19998;-69
2024/05/04 03:39:26;;;;;;;26.23;7.45;;;;;;;;;;5299409;26;20778;-69
2024/05/04 03:41:52;;;;;;;25.35;7.50;;;;;;;;;;5297179;26;20008;-69
2024/05/04 03:44:17;;;;;;;19.13;7.30;;;;;;;;;;5298444;26;20523;-68
2024/05/04 03:46:43;;;;;;;21.55;7.10;;;;;;;;;;5298133;26;20657;-68
2024/05/04 03:49:09;;;;;;;21.75;6.57;;;;;;;;;;5297874;26;20001;-69
2024/05/04 03:51:35;;;;;;;20.80;7.65;;;;;;;;;;5298722;26;20030;-69
2024/05/04 03:54:00;;;;;;;28.80;8.13;;;;;;;;;;5298374;26;20404;-68
2024/05/04 03:56:25;;;;;;;26.63;8.48;;;;;;;;;;5300485;26;19998;-69
2024/05/04 03:58:51;;;;;;;28.08;8.02;;;;;;;;;;5301846;26;20011;-69
2024/05/04 04:01:16;;;;;;;28.23;8.32;;;;;;;;;;5301704;27;20451;-69
2024/05/04 04:03:41;;;;;;;27.23;9.05;;;;;;;;;;5333261;26;20009;-69
2024/05/04 04:06:07;;;;;;;28.80;9.65;;;;;;;;;;5313160;26;19998;-69
2024/05/04 04:08:32;;;;;;;30.58;9.52;;;;;;;;;;5313341;26;20525;-68
2024/05/04 04:10:57;;;;;;;28.63;9.43;;;;;;;;;;5301983;26;20013;-68
2024/05/04 04:13:23;;;;;;;28.20;9.82;;;;;;;;;;5301277;26;20012;-69
2024/05/04 04:15:48;;;;;;;33.63;10.32;;;;;;;;;;5301962;26;20049;-69
2024/05/04 04:18:13;;;;;;;36.60;10.23;;;;;;;;;;5300217;26;20080;-69
2024/05/04 04:20:39;;;;;;;31.63;9.73;;;;;;;;;;5314419;26;20013;-68
2024/05/04 04:23:04;;;;;;;34.20;9.88;;;;;;;;;;5301432;26;20648;-69
2024/05/04 04:25:29;;;;;;;35.20;9.88;;;;;;;;;;5300989;26;20009;-68
2024/05/04 04:27:55;;;;;;;29.85;8.82;;;;;;;;;;5301335;26;20001;-69
2024/05/04 04:30:20;;;;;;;28.58;9.55;;;;;;;;;;5329011;26;20459;-69
2024/05/04 04:32:46;;;;;;;23.52;8.77;;;;;;;;;;5300947;26;20013;-69
2024/05/04 04:35:11;;;;;;;29.80;8.77;;;;;;;;;;5301251;26;20387;-69
2024/05/04 04:37:36;;;;;;;24.33;7.47;;;;;;;;;;5313692;26;20006;-69
2024/05/04 04:40:02;;;;;;;19.15;6.70;;;;;;;;;;5299217;27;20079;-69
2024/05/04 04:42:27;;;;;;;20.65;6.15;;;;;;;;;;5301692;26;20005;-68
2024/05/04 04:44:53;;;;;;;16.75;6.32;;;;;;;;;;5300316;26;20009;-69
2024/05/04 04:47:18;;;;;;;17.27;5.85;;;;;;;;;;5301482;26;20038;-69
2024/05/04 04:49:43;;;;;;;11.90;4.78;;;;;;;;;;5303394;26;20020;-69
2024/05/04 04:52:09;;;;;;;13.32;4.55;;;;;;;;;;5309567;26;19992;-69
2024/05/04 04:54:35;;;;;;;14.27;4.75;;;;;;;;;;5302107;26;20586;-69
2024/05/04 04:57:00;;;;;;;14.95;4.72;;;;;;;;;;5287260;27;20103;-69
2024/05/04 04:59:26;;;;;;;11.82;4.80;;;;;;;;;;5300325;26;20013;-69
2024/05/04 05:01:51;;;;;;;11.45;4.80;;;;;;;;;;5329627;26;19998;-69
2024/05/04 05:04:16;;;;;;;11.32;4.90;;;;;;;;;;5299866;27;19998;-69
2024/05/04 05:06:42;;;;;;;15.30;4.60;;;;;;;;;;5300630;26;20002;-69
2024/05/04 05:09:07;;;;;;;14.68;4.53;;;;;;;;;;5327198;26;20454;-69
2024/05/04 05:11:32;;;;;;;10.25;3.90;;;;;;;;;;5300600;26;20155;-69
2024/05/04 05:13:58;;;;;;;8.02;3.50;;;;;;;;;;5298594;26;19998;-69
2024/05/04 05:16:23;;;;;;;5.43;3.00;;;;;;;;;;5299733;26;20053;-69
2024/05/04 05:18:48;;;;;;;6.30;2.97;;;;;;;;;;5300674;26;20762;-69
2024/05/04 05:21:14;;;;;;;9.38;3.30;;;;;;;;;;5300427;26;20009;-69
2024/05/04 05:23:40;;;;;;;7.53;3.03;;;;;;;;;;5301302;26;20328;-69
2024/05/04 05:26:06;;;;;;;5.68;2.70;;;;;;;;;;5306873;26;20013;-69
2024/05/04 05:28:32;;;;;;;5.63;2.78;;;;;;;;;;5296641;26;20398;-69
2024/05/04 05:30:57;;;;;;;9.30;2.97;;;;;;;;;;5313877;26;19997;-68
2024/05/04 05:33:23;;;;;;;5.15;3.15;;;;;;;;;;5335344;26;20001;-69
2024/05/04 05:35:48;;;;;;;9.32;4.15;;;;;;;;;;5316126;26;20383;-69
2024/05/04 05:38:14;;;;;;;6.93;3.42;;;;;;;;;;5295850;27;20472;-69
2024/05/04 05:40:39;;;;;;;8.73;3.50;;;;;;;;;;5293046;26;20343;-69
2024/05/04 05:43:06;;;;;;;10.88;3.85;;;;;;;;;;5299348;26;20012;-69
2024/05/04 05:45:31;;;;;;;11.68;4.25;;;;;;;;;;5300748;26;20040;-69
2024/05/04 05:47:56;;;;;;;13.73;3.80;;;;;;;;;;5299728;26;20006;-69
2024/05/04 05:50:22;;;;;;;13.07;4.30;;;;;;;;;;5300297;26;20079;-69
2024/05/04 05:52:47;;;;;;;10.27;4.65;;;;;;;;;;5300108;26;20013;-69
2024/05/04 05:55:13;;;;;;;8.50;3.92;;;;;;;;;;5300281;26;20502;-69
2024/05/04 05:57:38;;;;;;;16.02;4.38;;;;;;;;;;5300100;26;20633;-69
2024/05/04 06:00:04;;;;;;;7.35;4.07;;;;;;;;;;5298232;26;20010;-69
2024/05/04 06:02:29;;;;;;;11.52;4.00;;;;;;;;;;5298923;26;20013;-69
2024/05/04 06:04:54;;;;;;;11.00;4.20;;;;;;;;;;5300662;26;20033;-69
2024/05/04 06:07:21;;;;;;;11.95;4.38;;;;;;;;;;5299799;26;20009;-69
2024/05/04 06:09:47;;;;;;;8.85;3.97;;;;;;;;;;5298918;27;20438;-69
2024/05/04 06:12:13;;;;;;;8.40;3.63;;;;;;;;;;5299615;26;20017;-69
2024/05/04 06:14:38;;;;;;;8.50;3.80;;;;;;;;;;5298612;26;20672;-69
2024/05/04 06:17:04;;;;;;;6.72;3.75;;;;;;;;;;5298942;26;19994;-69
2024/05/04 06:19:29;;;;;;;8.05;3.35;;;;;;;;;;5300197;26;20001;-68
2024/05/04 06:21:55;;;;;;;6.22;3.10;;;;;;;;;;5300125;27;19997;-69
2024/05/04 06:24:20;;;;;;;5.18;3.30;;;;;;;;;;5299430;26;20453;-69
2024/05/04 06:26:46;;;;;;;6.13;2.92;;;;;;;;;;5299357;26;20064;-68
2024/05/04 06:29:12;;;;;;;6.10;3.20;;;;;;;;;;5298686;26;20016;-69
2024/05/04 06:31:37;;;;;;;4.55;2.80;;;;;;;;;;5300005;26;20509;-68
2024/05/04 06:34:06;;;;;;;3.58;2.67;;;;;;;;;;5299899;27;20032;-68
2024/05/04 06:36:32;;;;;;;5.50;3.00;;;;;;;;;;5298593;26;20012;-68
2024/05/04 06:38:58;;;;;;;6.90;3.13;;;;;;;;;;5298621;26;20006;-69
2024/05/04 06:41:23;;;;;;;5.15;2.92;;;;;;;;;;5284063;26;20029;-69
2024/05/04 06:43:49;;;;;;;6.82;3.50;;;;;;;;;;5300453;26;20001;-69
2024/05/04 06:46:14;;;;;;;6.15;3.90;;;;;;;;;;5299907;26;19997;-69
2024/05/04 06:48:39;;;;;;;6.53;3.85;;;;;;;;;;5298873;26;20001;-69
2024/05/04 06:51:05;;;;;;;9.73;3.97;;;;;;;;;;5323493;26;20011;-69
2024/05/04 06:53:30;;;;;;;9.13;4.32;;;;;;;;;;5317019;26;20065;-69
2024/05/04 06:55:55;;;;;;;6.07;3.85;;;;;;;;;;5300815;26;20012;-69
2024/05/04 06:58:21;;;;;;;6.90;4.07;;;;;;;;;;5312212;26;20519;-69
2024/05/04 07:00:46;;;;;;;5.90;3.47;;;;;;;;;;5313378;26;20002;-69
2024/05/04 07:03:13;;;;;;;8.43;3.00;;;;;;;;;;5298716;26;20318;-69
2024/05/04 07:05:39;;;;;;;7.15;3.65;;;;;;;;;;5296200;26;20366;-69
2024/05/04 07:08:05;;;;;;;8.35;3.72;;;;;;;;;;5299014;27;20946;-69
2024/05/04 07:10:30;;;;;;;8.82;3.85;;;;;;;;;;5303878;26;20600;-69
2024/05/04 07:12:56;;;;;;;9.00;4.55;;;;;;;;;;5302051;26;20033;-69
2024/05/04 07:15:23;;;;;;;8.93;4.22;;;;;;;;;;5299080;26;20443;-69
2024/05/04 07:17:50;;;;;;;9.65;4.18;;;;;;;;;;5299465;27;19997;-69
2024/05/04 07:20:15;;;;;;;10.20;5.57;;;;;;;;;;5299811;26;20005;-69
2024/05/04 07:22:41;;;;;;;10.88;5.18;;;;;;;;;;5300531;26;20033;-69
2024/05/04 07:25:06;;;;;;;11.52;5.05;;;;;;;;;;5299232;26;20072;-69
2024/05/04 07:27:31;;;;;;;14.93;6.25;;;;;;;;;;5296289;26;19998;-69
2024/05/04 07:29:57;;;;;;;11.25;4.95;;;;;;;;;;5293053;26;20002;-69
2024/05/04 07:32:22;;;;;;;9.25;3.03;;;;;;;;;;5305007;26;20019;-68
2024/05/04 07:34:47;;;;;;;5.10;3.08;;;;;;;;;;5301074;27;20005;-69
2024/05/04 07:37:13;;;;;;;6.80;3.35;;;;;;;;;;5303363;26;20017;-68
2024/05/04 07:39:38;;;;;;;10.32;4.05;;;;;;;;;;5303837;26;20007;-69
2024/05/04 07:42:04;;;;;;;11.55;5.43;;;;;;;;;;5317959;26;20744;-68
2024/05/04 07:44:30;;;;;;;15.27;6.03;;;;;;;;;;5300440;26;20710;-68
2024/05/04 07:46:58;;;;;;;14.77;7.00;;;;;;;;;;5335231;26;20011;-68
2024/05/04 07:49:25;;;;;;;15.00;6.50;;;;;;;;;;5334339;26;20028;-69
2024/05/04 07:51:50;;;;;;;11.02;4.50;;;;;;;;;;5312280;26;20250;-69
2024/05/04 07:54:15;;;;;;;4.75;2.58;;;;;;;;;;5298898;26;20020;-69
2024/05/04 07:56:41;;;;;;;3.60;2.00;;;;;;;;;;5298928;26;20020;-68
2024/05/04 07:59:06;;;;;;;3.67;2.30;;;;;;;;;;5295299;26;20056;-69
2024/05/04 08:01:31;;;;;;;4.25;2.45;;;;;;;;;;5297638;26;20521;-69
2024/05/04 08:03:57;;;;;;;3.03;2.30;;;;;;;;;;5301010;26;19994;-69
2024/05/04 08:06:22;;;;;;;4.00;2.00;;;;;;;;;;5315964;26;20001;-68
2024/05/04 08:08:47;;;;;;;2.88;2.30;;;;;;;;;;5308550;26;19997;-69
2024/05/04 08:11:13;;;;;;;3.53;2.15;;;;;;;;;;5303521;26;20429;-69
2024/05/04 08:13:38;;;;;;;3.00;2.00;;;;;;;;;;5324539;26;20397;-69
2024/05/04 08:16:04;;;;;;;2.03;1.60;;;;;;;;;;5308380;26;20001;-69
2024/05/04 08:18:30;;;;;;;2.78;1.83;;;;;;;;;;5279409;26;20033;-69
2024/05/04 08:20:56;;;;;;;2.40;1.83;;;;;;;;;;5326763;26;20452;-69
2024/05/04 08:23:21;;;;;;;2.00;1.70;;;;;;;;;;5297330;26;20013;-68
2024/05/04 08:25:48;;;;;;;2.28;1.92;;;;;;;;;;5339199;26;20335;-69
2024/05/04 08:28:14;;;;;;;3.17;2.30;;;;;;;;;;5306987;26;20013;-69
2024/05/04 08:30:39;;;;;;;2.83;1.90;;;;;;;;;;5302149;26;20030;-69
2024/05/04 08:33:06;;;;;;;3.40;1.98;;;;;;;;;;5296524;26;20006;-69
2024/05/04 08:35:31;;;;;;;2.60;1.83;;;;;;;;;;5295718;26;20751;-69
2024/05/04 08:37:57;;;;;;;3.70;2.20;;;;;;;;;;5297969;26;20013;-69
2024/05/04 08:40:22;;;;;;;2.78;1.63;;;;;;;;;;5298606;26;20616;-69
2024/05/04 08:42:49;;;;;;;2.25;1.70;;;;;;;;;;5294310;26;20052;-68
2024/05/04 08:45:15;;;;;;;1.92;1.50;;;;;;;;;;5295611;26;20504;-69
2024/05/04 08:47:41;;;;;;;3.28;1.83;;;;;;;;;;5300306;26;19998;-68
2024/05/04 08:50:06;;;;;;;2.55;1.75;;;;;;;;;;5297754;26;20803;-69
2024/05/04 08:52:35;;;;;;;3.25;1.80;;;;;;;;;;5295848;26;20002;-69
2024/05/04 08:55:02;;;;;;;4.38;1.83;;;;;;;;;;5324551;26;20070;-69
2024/05/04 08:57:29;;;;;;;3.22;2.00;;;;;;;;;;5335265;26;20012;-68
2024/05/04 08:59:55;;;;;;;8.38;3.10;;;;;;;;;;5310529;26;20005;-69
2024/05/04 09:02:20;;;;;;;3.60;2.50;;;;;;;;;;5335680;26;20074;-69
2024/05/04 09:04:46;;;;;;;3.30;1.98;;;;;;;;;;5334470;26;20008;-69
2024/05/04 09:07:13;;;;;;;3.83;2.40;;;;;;;;;;5317381;26;20009;-69
2024/05/04 09:09:38;;;;;;;8.63;2.22;;;;;;;;;;5334560;26;20007;-69
2024/05/04 09:12:04;;;;;;;7.93;3.72;;;;;;;;;;5332101;26;20449;-69
2024/05/04 09:14:32;;;;;;;4.95;3.30;;;;;;;;;;5332667;26;20023;-68
2024/05/04 09:16:58;;;;;;;7.10;3.08;;;;;;;;;;5334349;26;20025;-69
2024/05/04 09:19:24;;;;;;;6.20;2.83;;;;;;;;;;5319063;26;20001;-68
2024/05/04 09:21:51;;;;;;;3.83;2.40;;;;;;;;;;5329101;26;20049;-69
2024/05/04 09:24:17;;;;;;;4.22;2.72;;;;;;;;;;5331309;26;20021;-68
2024/05/04 09:26:42;;;;;;;5.93;2.50;;;;;;;;;;5331397;26;20001;-69
2024/05/04 09:29:08;;;;;;;3.70;2.47;;;;;;;;;;5328767;26;20001;-69
2024/05/04 09:31:35;;;;;;;11.38;2.83;;;;;;;;;;5318512;26;20645;-69
2024/05/04 09:34:02;;;;;;;3.17;2.22;;;;;;;;;;5327872;26;20004;-70
2024/05/04 09:36:31;;;;;;;2.95;2.05;;;;;;;;;;5325285;26;20031;-68
2024/05/04 09:39:02;;;;;;;4.40;2.88;;;;;;;;;;5322235;26;20005;-69
2024/05/04 09:41:38;;;;;;;5.00;3.13;;;;;;;;;;5329784;26;20441;-69
2024/05/04 09:44:05;;;;;;;6.50;3.58;;;;;;;;;;5327762;26;20086;-70
2024/05/04 09:46:30;;;;;;;6.45;3.28;;;;;;;;;;5330573;26;20875;-69
2024/05/04 09:48:59;;;;;;;5.22;3.10;;;;;;;;;;5332560;26;20020;-69
2024/05/04 09:51:27;;;;;;;5.03;3.10;;;;;;;;;;5332398;26;20032;-69
2024/05/04 09:53:53;;;;;;;4.57;3.38;;;;;;;;;;5316824;26;20448;-69
2024/05/04 09:56:21;;;;;;;6.22;3.90;;;;;;;;;;5332685;26;20458;-69
2024/05/04 09:58:49;;;;;;;6.20;3.45;;;;;;;;;;5332568;26;20007;-70
2024/05/04 10:01:20;;;;;;;6.95;4.18;;;;;;;;;;5306205;26;20092;-69
2024/05/04 10:03:48;;;;;;;5.15;3.20;;;;;;;;;;5330669;26;20500;-70
2024/05/04 10:06:15;;;;;;;4.15;2.60;;;;;;;;;;5320160;26;20002;-70
2024/05/04 10:08:40;;;;;;;3.55;1.85;;;;;;;;;;5296884;27;20013;-70
2024/05/04 10:11:05;;;;;;;4.47;2.17;;;;;;;;;;5319081;26;19997;-69
2024/05/04 10:13:32;;;;;;;5.65;2.45;;;;;;;;;;5301792;26;20016;-69
2024/05/04 10:15:58;;;;;;;3.85;2.28;;;;;;;;;;5297055;26;19997;-68
2024/05/04 10:18:34;;;;;;;5.53;3.00;;;;;;;;;;5295984;26;20076;-68
2024/05/04 10:20:59;;;;;;;4.47;2.85;;;;;;;;;;5297884;26;20001;-69
2024/05/04 10:23:24;;;;;;;1.42;1.20;;;;;;;;;;5298754;26;20034;-68
2024/05/04 10:25:50;;;;;;;1.95;1.00;;;;;;;;;;5286273;26;20002;-69
2024/05/04 10:28:18;;;;;;;2.00;1.30;;;;;;;;;;5298107;26;20817;-68
2024/05/04 10:30:53;;;;;;;1.40;1.30;;;;;;;;;;5298550;26;19998;-69
2024/05/04 10:33:18;;;;;;;1.77;1.10;;;;;;;;;;5297526;26;19993;-69
2024/05/04 10:35:43;;;;;;;1.15;0.90;;;;;;;;;;5298474;26;20010;-69
2024/05/04 10:38:09;;;;;;;0.75;0.70;;;;;;;;;;5295623;27;20008;-69
2024/05/04 10:40:38;;;;;;;2.50;1.10;;;;;;;;;;5292331;27;19994;-68
2024/05/04 10:43:04;;;;;;;1.00;0.80;;;;;;;;;;5291529;26;20002;-68
2024/05/04 10:45:29;;;;;;;0.82;0.80;;;;;;;;;;5296255;26;20080;-69
2024/05/04 10:47:55;;;;;;;0.98;0.70;;;;;;;;;;5294460;26;20640;-68
2024/05/04 10:50:20;;;;;;;0.80;0.70;;;;;;;;;;5295060;26;20024;-69
2024/05/04 10:52:46;;;;;;;1.75;0.70;;;;;;;;;;5324691;26;20399;-68
2024/05/04 10:55:14;;;;;;;1.15;0.60;;;;;;;;;;5296260;27;20005;-69
2024/05/04 10:57:40;;;;;;;0.73;0.73;;;;;;;;;;5297863;26;19998;-68
2024/05/04 11:00:09;;;;;;;1.38;0.85;;;;;;;;;;5297755;26;20120;-69
2024/05/04 11:02:35;;;;;;;1.10;1.00;;;;;;;;;;5297160;26;20009;-69
2024/05/04 11:05:01;;;;;;;1.63;1.10;;;;;;;;;;5299040;26;20005;-69
2024/05/04 11:07:27;;;;;;;1.20;1.10;;;;;;;;;;5295584;26;20060;-69
2024/05/04 11:09:53;;;;;;;1.65;0.90;;;;;;;;;;5294136;26;20727;-68
2024/05/04 11:12:19;;;;;;;1.25;1.00;;;;;;;;;;5301834;26;20005;-68
2024/05/04 11:14:44;;;;;;;1.63;1.13;;;;;;;;;;5293319;26;20016;-68
2024/05/04 11:17:18;;;;;;;1.70;0.85;;;;;;;;;;5334177;26;20011;-69
2024/05/04 11:19:43;;;;;;;;;;;;;;;;;;5291852;26;20002;-68
2024/05/04 11:22:12;;;;;;;0.93;0.70;;;;;;;;;;5292910;26;19997;-68
2024/05/04 11:24:38;;;;;;;1.48;0.90;;;;;;;;;;5293127;26;20059;-69
2024/05/04 11:27:04;;;;;;;1.38;1.05;;;;;;;;;;5338136;26;20000;-69
2024/05/04 11:29:30;;;;;;;1.20;1.00;;;;;;;;;;5306492;26;20068;-69
2024/05/04 11:31:55;;;;;;;1.40;0.90;;;;;;;;;;5300014;26;19998;-69
2024/05/04 11:34:20;;;;;;;1.50;1.13;;;;;;;;;;5297833;26;20021;-68
2024/05/04 11:36:46;;;;;;;0.90;0.85;;;;;;;;;;5296924;26;20028;-69
2024/05/04 11:39:12;;;;;;;2.05;1.00;;;;;;;;;;5299129;26;20017;-69
2024/05/04 11:41:38;;;;;;;1.80;0.95;;;;;;;;;;5295418;26;20013;-69
2024/05/04 11:44:04;;;;;;;2.35;1.00;;;;;;;;;;5299460;26;20008;-69
2024/05/04 11:46:29;;;;;;;1.30;0.88;;;;;;;;;;5296280;26;20001;-67
2024/05/04 11:48:54;;;;;;;1.27;0.95;;;;;;;;;;5317584;26;20025;-69
2024/05/04 11:51:20;;;;;;;0.70;0.60;;;;;;;;;;5298734;26;20005;-68
2024/05/04 11:53:46;;;;;;;0.77;0.65;;;;;;;;;;5295938;26;20101;-69
2024/05/04 11:56:11;;;;;;;0.70;0.70;;;;;;;;;;5283703;27;20088;-69
2024/05/04 11:58:36;;;;;;;0.93;0.70;;;;;;;;;;5319568;26;20010;-68
2024/05/04 12:01:02;;;;;;;0.90;0.80;;;;;;;;;;5323011;26;20581;-69
2024/05/04 12:03:28;;;;;;;1.70;0.85;;;;;;;;;;5320648;26;20014;-69
2024/05/04 12:05:53;;;;;;;3.03;0.90;;;;;;;;;;5320499;26;20502;-69
2024/05/04 12:08:18;;;;;;;5.80;0.90;;;;;;;;;;5302786;26;20023;-69
2024/05/04 12:10:44;;;;;;;1.30;0.82;;;;;;;;;;5326996;26;20451;-69
2024/05/04 12:13:09;;;;;;;1.65;0.70;;;;;;;;;;5317212;26;20001;-69
2024/05/04 12:15:34;;;;;;;2.53;0.80;;;;;;;;;;5315248;26;20005;-69
2024/05/04 12:18:00;;;;;;;1.27;0.80;;;;;;;;;;5328237;26;20009;-69
2024/05/04 12:20:25;;;;;;;1.20;0.80;;;;;;;;;;5325405;26;20009;-68
2024/05/04 12:22:51;;;;;;;0.85;0.60;;;;;;;;;;5305000;26;20012;-69
2024/05/04 12:25:16;;;;;;;2.25;0.70;;;;;;;;;;5324322;26;20013;-69
2024/05/04 12:27:44;;;;;;;0.60;0.60;;;;;;;;;;5291241;26;19997;-70
2024/05/04 12:30:10;;;;;;;0.57;0.57;;;;;;;;;;5306806;26;20013;-69
2024/05/04 12:32:35;;;;;;;0.70;0.70;;;;;;;;;;5324519;26;20001;-69
2024/05/04 12:35:00;;;;;;;0.80;0.80;;;;;;;;;;5333123;26;20015;-69
2024/05/04 12:37:27;;;;;;;1.15;0.70;;;;;;;;;;5305384;26;20072;-69
2024/05/04 12:39:52;;;;;;;0.70;0.70;;;;;;;;;;5293186;26;20023;-69
2024/05/04 12:42:19;;;;;;;1.00;0.65;;;;;;;;;;5301992;26;19997;-70
2024/05/04 12:44:45;;;;;;;1.10;0.52;;;;;;;;;;5290956;26;20088;-69
2024/05/04 12:47:10;;;;;;;1.15;0.70;;;;;;;;;;5299224;26;20064;-69
2024/05/04 12:49:36;;;;;;;0.93;0.60;;;;;;;;;;5298348;26;20002;-69
2024/05/04 12:52:01;;;;;;;3.05;0.70;;;;;;;;;;5297862;26;20013;-69
2024/05/04 12:54:27;;;;;;;1.73;0.70;;;;;;;;;;5296402;26;20141;-69
2024/05/04 12:56:53;;;;;;;0.52;0.52;;;;;;;;;;5293474;26;20043;-69
2024/05/04 12:59:18;;;;;;;1.77;0.60;;;;;;;;;;5292351;26;20037;-69
2024/05/04 13:01:43;;;;;;;1.17;0.75;;;;;;;;;;5293255;26;20033;-70
2024/05/04 13:04:09;;;;;;;2.65;0.60;;;;;;;;;;5352182;26;19997;-69
2024/05/04 13:06:34;;;;;;;0.63;0.63;;;;;;;;;;5307447;26;20007;-69
2024/05/04 13:09:00;;;;;;;2.03;1.10;;;;;;;;;;5334305;26;20001;-70
2024/05/04 13:11:25;;;;;;;1.55;0.80;;;;;;;;;;5331771;26;19997;-69
2024/05/04 13:13:50;;;;;;;1.35;0.77;;;;;;;;;;5330174;26;19997;-69
2024/05/04 13:16:16;;;;;;;1.70;0.73;;;;;;;;;;5317552;26;19993;-69
2024/05/04 13:18:42;;;;;;;1.55;0.70;;;;;;;;;;5316991;26;20008;-69
2024/05/04 13:21:07;;;;;;;1.80;0.70;;;;;;;;;;5333291;26;20065;-69
2024/05/04 13:23:33;;;;;;;0.85;0.77;;;;;;;;;;5334024;26;20005;-69
2024/05/04 13:25:58;;;;;;;1.05;0.70;;;;;;;;;;5332986;26;20009;-69
2024/05/04 13:28:24;;;;;;;1.15;0.80;;;;;;;;;;5330169;26;19997;-69
2024/05/04 13:30:49;;;;;;;1.15;0.80;;;;;;;;;;5332888;26;20008;-68
2024/05/04 13:33:15;;;;;;;1.60;0.90;;;;;;;;;;5326700;26;20770;-69
2024/05/04 13:35:40;;;;;;;2.10;0.80;;;;;;;;;;5335509;26;20013;-69
2024/05/04 13:38:06;;;;;;;0.70;0.70;;;;;;;;;;5332300;26;20001;-70
2024/05/04 13:40:32;;;;;;;0.80;0.80;;;;;;;;;;5315385;26;20004;-69
2024/05/04 13:42:58;;;;;;;2.40;0.95;;;;;;;;;;5335149;26;20113;-69
2024/05/04 13:45:23;;;;;;;1.50;0.90;;;;;;;;;;5327847;26;20067;-68
2024/05/04 13:47:49;;;;;;;1.67;0.90;;;;;;;;;;5327678;26;19993;-69
2024/05/04 13:50:14;;;;;;;1.58;0.90;;;;;;;;;;5333441;26;20027;-69
2024/05/04 13:52:40;;;;;;;1.20;0.90;;;;;;;;;;5330041;26;20018;-69
2024/05/04 13:55:05;;;;;;;1.60;0.90;;;;;;;;;;5334271;26;20009;-69
2024/05/04 13:57:31;;;;;;;1.00;0.90;;;;;;;;;;5333741;26;20053;-69
2024/05/04 13:59:56;;;;;;;2.25;0.80;;;;;;;;;;5308152;26;20430;-69
2024/05/04 14:02:22;;;;;;;1.65;0.88;;;;;;;;;;5331715;26;20009;-69
2024/05/04 14:04:47;;;;;;;1.85;1.00;;;;;;;;;;5326914;26;19997;-70
2024/05/04 14:07:13;;;;;;;1.98;1.10;;;;;;;;;;5328607;26;20045;-69
2024/05/04 14:09:41;;;;;;;1.02;0.95;;;;;;;;;;5333213;26;20141;-69
2024/05/04 14:12:06;;;;;;;1.63;0.90;;;;;;;;;;5331595;26;20000;-69
2024/05/04 14:14:32;;;;;;;2.92;1.17;;;;;;;;;;5334095;26;20462;-69
2024/05/04 14:16:57;;;;;;;1.45;0.95;;;;;;;;;;5334452;26;20529;-68
2024/05/04 14:19:23;;;;;;;2.08;1.42;;;;;;;;;;5316083;26;20074;-69
2024/05/04 14:21:50;;;;;;;1.67;1.23;;;;;;;;;;5317046;26;20014;-69
2024/05/04 14:24:16;;;;;;;3.03;1.30;;;;;;;;;;5334069;26;20042;-68
2024/05/04 14:26:41;;;;;;;3.45;1.20;;;;;;;;;;5332205;26;19997;-69
2024/05/04 14:29:07;;;;;;;1.58;1.00;;;;;;;;;;5332173;26;20584;-69
2024/05/04 14:31:32;;;;;;;1.50;0.93;;;;;;;;;;5331320;26;20817;-69